createdAt,value
2023-03-05T00:01:27.247Z,68.08
2023-03-05T00:03:58.352Z,67.98
2023-03-05T00:06:28.536Z,68.03
2023-03-05T00:08:58.515Z,68.16
2023-03-05T00:11:30.238Z,68.06
2023-03-05T00:13:59.478Z,68.07
2023-03-05T00:16:29.069Z,68.04
2023-03-05T00:18:58.720Z,67.84
2023-03-05T00:21:35.180Z,68.18
2023-03-05T00:24:05.014Z,68.10
2023-03-05T00:26:35.453Z,68.14
2023-03-05T00:29:03.705Z,68.03
2023-03-05T00:31:32.445Z,67.95
2023-03-05T00:34:03.490Z,68.07
2023-03-05T00:36:31.651Z,68.20
2023-03-05T00:38:59.399Z,68.08
2023-03-05T00:41:28.378Z,68.16
2023-03-05T00:43:56.304Z,68.21
2023-03-05T00:46:24.648Z,67.94
2023-03-05T00:48:52.526Z,68.17
2023-03-05T00:51:20.838Z,68.04
2023-03-05T00:53:48.464Z,68.25
2023-03-05T00:56:15.998Z,68.08
2023-03-05T00:58:44.030Z,67.97
2023-03-05T01:01:12.297Z,68.10
2023-03-05T01:03:40.335Z,67.84
2023-03-05T01:06:11.682Z,68.07
2023-03-05T01:08:39.974Z,67.97
2023-03-05T01:11:09.111Z,68.09
2023-03-05T01:13:37.627Z,67.86
2023-03-05T01:16:06.146Z,67.98
2023-03-05T01:18:35.105Z,67.91
2023-03-05T01:21:04.027Z,67.90
2023-03-05T01:23:34.539Z,67.92
2023-03-05T01:26:01.979Z,67.99
2023-03-05T01:28:29.398Z,67.95
2023-03-05T01:30:57.050Z,67.72
2023-03-05T01:33:24.852Z,67.51
2023-03-05T01:35:52.967Z,67.76
2023-03-05T01:38:21.645Z,67.67
2023-03-05T01:40:49.067Z,67.73
2023-03-05T01:43:23.567Z,67.64
2023-03-05T01:46:24.090Z,67.65
2023-03-05T01:49:17.675Z,67.53
2023-03-05T01:52:10.160Z,67.78
2023-03-05T01:54:42.551Z,67.54
2023-03-05T01:57:24.132Z,67.47
2023-03-05T02:00:01.020Z,67.58
2023-03-05T02:02:30.064Z,67.63
2023-03-05T02:05:03.987Z,67.64
2023-03-05T02:07:33.783Z,67.48
2023-03-05T02:10:01.370Z,67.58
2023-03-05T02:12:31.021Z,67.59
2023-03-05T02:15:19.000Z,67.71
2023-03-05T02:17:46.858Z,67.67
2023-03-05T02:20:26.202Z,67.79
2023-03-05T02:22:54.851Z,67.69
2023-03-05T02:25:26.777Z,67.54
2023-03-05T02:28:03.546Z,67.75
2023-03-05T02:30:31.577Z,67.59
2023-03-05T02:32:59.322Z,67.87
2023-03-05T02:35:27.670Z,67.84
2023-03-05T02:37:55.691Z,67.89
2023-03-05T02:40:23.880Z,67.97
2023-03-05T02:42:52.427Z,67.94
2023-03-05T02:45:20.326Z,67.94
2023-03-05T02:47:47.819Z,68.18
2023-03-05T02:50:16.093Z,68.09
2023-03-05T02:52:43.659Z,68.00
2023-03-05T02:55:14.842Z,68.22
2023-03-05T02:57:43.977Z,68.18
2023-03-05T03:00:12.091Z,68.27
2023-03-05T03:02:39.838Z,68.26
2023-03-05T03:05:08.026Z,68.26
2023-03-05T03:07:36.681Z,68.43
2023-03-05T03:10:06.118Z,68.43
2023-03-05T03:12:38.491Z,68.42
2023-03-05T03:15:07.474Z,68.33
2023-03-05T03:17:37.162Z,68.48
2023-03-05T03:20:08.148Z,68.32
2023-03-05T03:22:35.689Z,68.43
2023-03-05T03:25:04.696Z,68.46
2023-03-05T03:27:32.323Z,68.49
2023-03-05T03:30:02.960Z,68.39
2023-03-05T03:32:33.582Z,68.48
2023-03-05T03:35:01.708Z,68.45
2023-03-05T03:37:30.922Z,68.55
2023-03-05T03:39:58.630Z,68.39
2023-03-05T03:42:26.223Z,68.15
2023-03-05T03:44:54.044Z,68.38
2023-03-05T03:47:21.746Z,68.46
2023-03-05T03:49:49.331Z,68.54
2023-03-05T03:52:17.449Z,68.42
2023-03-05T03:54:44.999Z,68.41
2023-03-05T03:57:12.643Z,68.22
2023-03-05T03:59:40.081Z,68.43
2023-03-05T04:02:07.574Z,68.42
2023-03-05T04:04:35.265Z,68.47
2023-03-05T04:07:02.771Z,68.53
2023-03-05T04:09:30.667Z,68.76
2023-03-05T04:11:58.134Z,68.79
2023-03-05T04:14:26.741Z,68.74
2023-03-05T04:16:54.782Z,68.96
2023-03-05T04:19:22.472Z,68.92
2023-03-05T04:21:50.416Z,69.07
2023-03-05T04:24:18.315Z,68.94
2023-03-05T04:26:45.852Z,69.05
2023-03-05T04:29:13.324Z,69.01
2023-03-05T04:31:40.851Z,69.12
2023-03-05T04:34:08.563Z,68.95
2023-03-05T04:36:37.129Z,69.01
2023-03-05T04:39:05.231Z,68.90
2023-03-05T04:41:32.784Z,68.83
2023-03-05T04:44:00.438Z,68.96
2023-03-05T04:46:28.316Z,68.73
2023-03-05T04:48:57.528Z,68.79
2023-03-05T04:51:25.103Z,68.84
2023-03-05T04:53:52.537Z,68.83
2023-03-05T04:56:20.528Z,68.86
2023-03-05T04:58:48.444Z,68.92
2023-03-05T05:01:16.138Z,68.85
2023-03-05T05:03:44.335Z,68.83
2023-03-05T05:06:12.157Z,68.82
2023-03-05T05:08:39.682Z,68.89
2023-03-05T05:11:08.763Z,68.81
2023-03-05T05:13:36.605Z,68.81
2023-03-05T05:16:07.830Z,68.66
2023-03-05T05:18:36.424Z,68.81
2023-03-05T05:21:09.165Z,68.35
2023-03-05T05:23:38.005Z,68.22
2023-03-05T05:26:08.020Z,68.34
2023-03-05T05:28:36.278Z,68.20
2023-03-05T05:31:08.418Z,68.36
2023-03-05T05:33:36.726Z,68.04
2023-03-05T05:36:09.336Z,68.04
2023-03-05T05:38:37.263Z,68.23
2023-03-05T05:41:12.367Z,68.05
2023-03-05T05:43:41.560Z,68.01
2023-03-05T05:46:13.029Z,67.75
2023-03-05T05:48:41.297Z,67.89
2023-03-05T05:51:11.477Z,67.71
2023-03-05T05:53:39.590Z,67.91
2023-03-05T05:56:09.596Z,67.63
2023-03-05T05:58:39.001Z,67.53
2023-03-05T06:01:18.853Z,67.67
2023-03-05T06:03:47.211Z,67.56
2023-03-05T06:06:17.664Z,67.49
2023-03-05T06:08:45.260Z,67.78
2023-03-05T06:11:13.104Z,67.54
2023-03-05T06:13:41.051Z,67.81
2023-03-05T06:16:14.557Z,67.76
2023-03-05T06:18:43.184Z,67.56
2023-03-05T06:21:16.388Z,67.84
2023-03-05T06:23:45.274Z,67.83
2023-03-05T06:26:15.404Z,67.79
2023-03-05T06:28:43.188Z,67.79
2023-03-05T06:31:14.474Z,68.17
2023-03-05T06:33:42.709Z,67.82
2023-03-05T06:36:13.232Z,67.79
2023-03-05T06:38:42.154Z,68.04
2023-03-05T06:41:12.297Z,67.83
2023-03-05T06:43:42.017Z,67.84
2023-03-05T06:46:32.699Z,67.94
2023-03-05T06:49:02.653Z,67.91
2023-03-05T06:51:34.151Z,67.97
2023-03-05T06:54:05.046Z,67.94
2023-03-05T06:56:35.493Z,67.91
2023-03-05T06:59:03.497Z,68.13
2023-03-05T07:01:31.658Z,67.75
2023-03-05T07:04:00.784Z,67.69
2023-03-05T07:06:33.420Z,67.84
2023-03-05T07:09:01.905Z,67.92
2023-03-05T07:11:31.506Z,67.97
2023-03-05T07:13:59.828Z,67.63
2023-03-05T07:16:31.056Z,67.61
2023-03-05T07:19:01.025Z,67.44
2023-03-05T07:21:31.065Z,67.38
2023-03-05T07:24:01.823Z,67.70
2023-03-05T07:26:31.078Z,67.71
2023-03-05T07:28:59.367Z,67.90
2023-03-05T07:31:31.165Z,68.13
2023-03-05T07:34:02.355Z,67.79
2023-03-05T07:36:31.192Z,67.74
2023-03-05T07:38:59.176Z,67.96
2023-03-05T07:41:27.820Z,68.00
2023-03-05T07:43:56.169Z,67.88
2023-03-05T07:46:27.449Z,68.04
2023-03-05T07:48:56.280Z,67.98
2023-03-05T07:51:25.797Z,67.93
2023-03-05T07:53:55.563Z,67.85
2023-03-05T07:56:35.651Z,67.92
2023-03-05T07:59:12.913Z,67.72
2023-03-05T08:01:41.503Z,67.61
2023-03-05T08:04:11.275Z,67.87
2023-03-05T08:06:41.165Z,68.05
2023-03-05T08:09:09.111Z,67.90
2023-03-05T08:11:37.160Z,67.69
2023-03-05T08:14:05.217Z,67.84
2023-03-05T08:16:33.074Z,68.08
2023-03-05T08:19:02.160Z,67.78
2023-03-05T08:21:35.661Z,67.78
2023-03-05T08:24:07.285Z,67.74
2023-03-05T08:26:41.335Z,67.55
2023-03-05T08:29:10.457Z,67.56
2023-03-05T08:31:39.063Z,67.52
2023-03-05T08:34:07.622Z,67.78
2023-03-05T08:36:35.689Z,67.60
2023-03-05T08:39:04.236Z,67.63
2023-03-05T08:41:32.105Z,67.63
2023-03-05T08:44:00.410Z,67.96
2023-03-05T08:46:28.572Z,67.73
2023-03-05T08:48:56.557Z,67.63
2023-03-05T08:51:26.158Z,67.59
2023-03-05T08:53:55.984Z,67.31
2023-03-05T08:56:23.778Z,67.31
2023-03-05T08:58:53.019Z,67.58
2023-03-05T09:01:21.179Z,67.69
2023-03-05T09:03:49.322Z,67.94
2023-03-05T09:06:17.509Z,68.15
2023-03-05T09:08:45.734Z,68.00
2023-03-05T09:11:18.122Z,67.92
2023-03-05T09:13:46.058Z,68.08
2023-03-05T09:16:17.678Z,68.26
2023-03-05T09:18:51.372Z,68.40
2023-03-05T09:21:19.524Z,67.57
2023-03-05T09:23:47.809Z,67.61
2023-03-05T09:26:22.153Z,67.78
2023-03-05T09:28:50.019Z,67.78
2023-03-05T09:31:20.736Z,67.84
2023-03-05T09:33:49.739Z,68.06
2023-03-05T09:36:29.302Z,68.04
2023-03-05T09:38:57.221Z,67.83
2023-03-05T09:41:41.166Z,68.30
2023-03-05T09:44:42.152Z,67.98
2023-03-05T09:47:10.333Z,67.90
2023-03-05T09:50:17.288Z,67.93
2023-03-05T09:52:57.354Z,68.20
2023-03-05T09:55:36.569Z,68.15
2023-03-05T09:58:11.399Z,67.94
2023-03-05T10:00:48.104Z,68.60
2023-03-05T10:03:27.444Z,67.89
2023-03-05T10:06:22.653Z,67.55
2023-03-05T10:09:24.764Z,67.44
2023-03-05T10:12:23.489Z,66.50
2023-03-05T10:14:51.745Z,66.61
2023-03-05T10:17:39.143Z,66.55
2023-03-05T10:20:27.644Z,65.58
2023-03-05T10:23:14.423Z,64.82
2023-03-05T10:26:00.118Z,65.24
2023-03-05T10:28:58.126Z,65.32
2023-03-05T10:32:04.950Z,65.12
2023-03-05T10:34:57.526Z,65.32
2023-03-05T10:37:53.662Z,65.06
2023-03-05T10:40:28.187Z,65.23
2023-03-05T10:43:05.096Z,65.12
2023-03-05T10:45:43.524Z,64.88
2023-03-05T10:48:38.309Z,65.29
2023-03-05T10:51:23.401Z,65.19
2023-03-05T10:54:06.827Z,65.12
2023-03-05T10:56:34.950Z,65.31
2023-03-05T10:59:05.388Z,65.51
2023-03-05T11:01:35.021Z,65.37
2023-03-05T11:04:06.144Z,65.30
2023-03-05T11:06:42.598Z,65.01
2023-03-05T11:09:18.274Z,65.23
2023-03-05T11:12:07.131Z,65.60
2023-03-05T11:14:38.810Z,65.01
2023-03-05T11:17:31.851Z,65.10
2023-03-05T11:20:27.598Z,65.20
2023-03-05T11:23:08.612Z,65.23
2023-03-05T11:26:01.825Z,65.54
2023-03-05T11:28:42.615Z,65.75
2023-03-05T11:31:16.262Z,65.83
2023-03-05T11:34:12.078Z,66.13
2023-03-05T11:36:42.757Z,66.07
2023-03-05T11:39:22.586Z,66.22
2023-03-05T11:41:57.556Z,66.09
2023-03-05T11:44:35.120Z,66.00
2023-03-05T11:47:33.077Z,65.73
2023-03-05T11:50:24.060Z,65.71
2023-03-05T11:52:57.342Z,65.50
2023-03-05T11:55:34.779Z,65.22
2023-03-05T11:58:17.771Z,64.88
2023-03-05T12:00:48.806Z,65.08
2023-03-05T12:03:24.985Z,65.47
2023-03-05T12:06:20.906Z,65.35
2023-03-05T12:08:54.454Z,65.37
2023-03-05T12:11:29.269Z,65.02
2023-03-05T12:14:06.368Z,65.13
2023-03-05T12:16:45.191Z,65.25
2023-03-05T12:19:32.985Z,65.30
2023-03-05T12:22:06.370Z,64.92
2023-03-05T12:24:36.556Z,64.10
2023-03-05T12:27:04.758Z,64.24
2023-03-05T12:29:46.341Z,64.07
2023-03-05T12:32:23.313Z,63.65
2023-03-05T12:35:01.269Z,63.53
2023-03-05T12:37:31.872Z,63.88
2023-03-05T12:40:01.160Z,63.47
2023-03-05T12:42:29.566Z,63.58
2023-03-05T12:45:25.719Z,63.86
2023-03-05T12:47:56.399Z,64.04
2023-03-05T12:50:29.460Z,64.32
2023-03-05T12:53:16.420Z,64.40
2023-03-05T12:55:58.175Z,64.70
2023-03-05T12:58:56.229Z,64.82
2023-03-05T13:01:34.390Z,65.30
2023-03-05T13:04:20.147Z,65.26
2023-03-05T13:06:59.471Z,65.22
2023-03-05T13:09:31.716Z,65.14
2023-03-05T13:12:01.048Z,65.22
2023-03-05T13:14:55.685Z,65.48
2023-03-05T13:17:36.169Z,65.14
2023-03-05T13:20:39.825Z,65.39
2023-03-05T13:23:21.597Z,65.34
2023-03-05T13:26:01.584Z,65.56
2023-03-05T13:28:31.446Z,65.46
2023-03-05T13:31:16.371Z,65.04
2023-03-05T13:33:58.553Z,64.87
2023-03-05T13:36:28.020Z,64.72
2023-03-05T13:38:56.341Z,64.39
2023-03-05T13:41:28.694Z,64.35
2023-03-05T13:44:00.149Z,64.09
2023-03-05T13:46:41.168Z,64.18
2023-03-05T13:49:24.708Z,63.92
2023-03-05T13:51:58.383Z,64.34
2023-03-05T13:54:28.760Z,64.61
2023-03-05T13:56:58.859Z,64.62
2023-03-05T13:59:32.301Z,65.15
2023-03-05T14:02:06.040Z,65.18
2023-03-05T14:04:41.464Z,65.44
2023-03-05T14:07:28.072Z,65.64
2023-03-05T14:10:00.426Z,65.86
2023-03-05T14:12:37.205Z,66.03
2023-03-05T14:15:28.986Z,66.11
2023-03-05T14:18:12.339Z,65.67
2023-03-05T14:20:59.597Z,65.53
2023-03-05T14:23:46.168Z,65.49
2023-03-05T14:26:35.068Z,65.38
2023-03-05T14:29:13.761Z,65.23
2023-03-05T14:31:50.971Z,65.40
2023-03-05T14:34:42.855Z,65.14
2023-03-05T14:37:30.888Z,65.26
2023-03-05T14:40:05.670Z,64.39
2023-03-05T14:42:38.747Z,64.10
2023-03-05T14:45:16.030Z,64.55
2023-03-05T14:47:44.761Z,64.40
2023-03-05T14:50:21.720Z,64.26
2023-03-05T14:52:58.945Z,64.43
2023-03-05T14:55:31.872Z,64.72
2023-03-05T14:58:19.155Z,64.79
2023-03-05T15:00:50.676Z,64.84
2023-03-05T15:03:20.665Z,65.00
2023-03-05T15:05:51.187Z,64.91
2023-03-05T15:08:29.288Z,64.75
2023-03-05T15:10:58.409Z,64.79
2023-03-05T15:13:26.892Z,64.79
2023-03-05T15:15:55.471Z,64.58
2023-03-05T15:18:23.959Z,64.87
2023-03-05T15:20:53.433Z,64.71
2023-03-05T15:23:21.621Z,64.79
2023-03-05T15:25:51.478Z,64.80
2023-03-05T15:28:19.657Z,64.84
2023-03-05T15:30:51.746Z,64.69
2023-03-05T15:33:20.300Z,64.88
2023-03-05T15:35:48.451Z,64.91
2023-03-05T15:38:19.839Z,64.75
2023-03-05T15:40:49.034Z,64.74
2023-03-05T15:43:18.958Z,64.57
2023-03-05T15:45:48.238Z,64.49
2023-03-05T15:48:16.399Z,64.32
2023-03-05T15:50:45.415Z,64.42
2023-03-05T15:53:18.205Z,64.48
2023-03-05T15:55:46.496Z,64.18
2023-03-05T15:58:17.104Z,64.06
2023-03-05T16:00:47.657Z,64.26
2023-03-05T16:03:19.378Z,64.38
2023-03-05T16:05:48.725Z,64.45
2023-03-05T16:08:17.553Z,64.50
2023-03-05T16:10:55.091Z,64.40
2023-03-05T16:13:33.010Z,64.31
2023-03-05T16:16:10.628Z,64.25
2023-03-05T16:19:11.350Z,64.11
2023-03-05T16:21:45.722Z,64.00
2023-03-05T16:24:16.895Z,64.00
2023-03-05T16:26:45.676Z,64.10
2023-03-05T16:29:15.235Z,63.95
2023-03-05T16:31:45.564Z,64.14
2023-03-05T16:34:16.714Z,63.96
2023-03-05T16:36:52.840Z,64.26
2023-03-05T16:39:22.464Z,64.20
2023-03-05T16:42:04.068Z,64.18
2023-03-05T16:44:43.461Z,64.12
2023-03-05T16:47:27.229Z,63.94
2023-03-05T16:50:02.398Z,63.53
2023-03-05T16:53:16.693Z,63.54
2023-03-05T16:56:14.632Z,63.45
2023-03-05T16:59:02.548Z,63.49
2023-03-05T17:01:43.014Z,63.34
2023-03-05T17:04:19.459Z,63.51
2023-03-05T17:06:58.409Z,63.47
2023-03-05T17:09:35.184Z,63.38
2023-03-05T17:12:51.620Z,63.53
2023-03-05T17:15:37.457Z,63.37
2023-03-05T17:18:42.023Z,63.61
2023-03-05T17:21:19.091Z,63.29
2023-03-05T17:23:55.088Z,63.41
2023-03-05T17:26:30.706Z,63.39
2023-03-05T17:32:05.243Z,63.55
2023-03-05T17:34:40.630Z,63.61
2023-03-05T17:37:21.940Z,63.65
2023-03-05T17:40:00.232Z,63.68
2023-03-05T17:42:48.872Z,63.62
2023-03-05T17:45:26.809Z,63.78
2023-03-05T17:47:59.646Z,63.84
2023-03-05T17:50:31.540Z,63.77
2023-03-05T17:53:04.371Z,63.98
2023-03-05T17:55:37.688Z,64.15
2023-03-05T17:58:06.004Z,64.00
2023-03-05T18:00:37.617Z,64.22
2023-03-05T18:03:06.750Z,64.17
2023-03-05T18:05:38.294Z,64.30
2023-03-05T18:08:06.791Z,64.44
2023-03-05T18:10:35.899Z,64.29
2023-03-05T18:13:05.099Z,64.26
2023-03-05T18:15:38.058Z,64.18
2023-03-05T18:18:07.607Z,64.34
2023-03-05T18:20:37.854Z,64.48
2023-03-05T18:23:06.634Z,64.11
2023-03-05T18:25:37.148Z,64.34
2023-03-05T18:28:10.980Z,64.17
2023-03-05T18:30:43.336Z,64.20
2023-03-05T18:33:20.307Z,64.34
2023-03-05T18:35:52.585Z,64.44
2023-03-05T18:38:31.616Z,64.24
2023-03-05T18:41:03.566Z,64.12
2023-03-05T18:43:33.657Z,64.32
2023-03-05T18:46:05.166Z,64.32
2023-03-05T18:48:34.373Z,64.17
2023-03-05T18:51:03.197Z,64.30
2023-03-05T18:53:30.917Z,64.17
2023-03-05T18:56:01.447Z,64.27
2023-03-05T18:58:32.025Z,64.46
2023-03-05T19:01:00.474Z,64.44
2023-03-05T19:03:28.225Z,64.28
2023-03-05T19:05:56.110Z,64.22
2023-03-05T19:08:24.094Z,64.30
2023-03-05T19:10:52.803Z,64.38
2023-03-05T19:13:39.971Z,64.38
2023-03-05T19:16:12.621Z,64.39
2023-03-05T19:18:59.359Z,64.68
2023-03-05T19:21:27.100Z,64.59
2023-03-05T19:23:55.199Z,64.50
2023-03-05T19:26:22.675Z,64.78
2023-03-05T19:28:50.411Z,64.59
2023-03-05T19:31:18.960Z,64.61
2023-03-05T19:33:46.931Z,64.77
2023-03-05T19:36:14.804Z,64.91
2023-03-05T19:38:43.342Z,65.30
2023-03-05T19:41:14.067Z,65.33
2023-03-05T19:43:42.265Z,65.42
2023-03-05T19:46:19.351Z,65.35
2023-03-05T19:48:49.889Z,65.38
2023-03-05T19:51:26.022Z,65.38
2023-03-05T19:53:54.401Z,65.55
2023-03-05T19:56:22.057Z,65.42
2023-03-05T19:58:49.900Z,65.61
2023-03-05T20:01:24.017Z,65.81
2023-03-05T20:03:57.316Z,65.80
2023-03-05T20:06:27.341Z,65.76
2023-03-05T20:09:02.477Z,65.62
2023-03-05T20:11:33.252Z,65.67
2023-03-05T20:14:00.978Z,65.45
2023-03-05T20:16:35.485Z,65.38
2023-03-05T20:19:07.720Z,65.43
2023-03-05T20:21:41.208Z,65.46
2023-03-05T20:24:12.711Z,65.63
2023-03-05T20:26:41.648Z,65.45
2023-03-05T20:29:10.221Z,65.58
2023-03-05T20:31:38.193Z,65.62
2023-03-05T20:34:08.084Z,65.61
2023-03-05T20:36:36.118Z,65.65
2023-03-05T20:39:05.578Z,65.82
2023-03-05T20:41:35.117Z,65.83
2023-03-05T20:44:03.653Z,65.80
2023-03-05T20:46:34.900Z,65.96
2023-03-05T20:49:04.123Z,65.88
2023-03-05T20:51:35.065Z,65.92
2023-03-05T20:54:08.799Z,65.92
2023-03-05T20:56:36.917Z,66.07
2023-03-05T20:59:08.976Z,66.01
2023-03-05T21:01:39.962Z,66.16
2023-03-05T21:04:09.913Z,66.24
2023-03-05T21:06:37.822Z,66.22
2023-03-05T21:09:05.605Z,66.38
2023-03-05T21:11:35.569Z,66.29
2023-03-05T21:14:03.189Z,66.43
2023-03-05T21:16:30.836Z,66.50
2023-03-05T21:18:58.521Z,66.57
2023-03-05T21:21:26.246Z,66.43
2023-03-05T21:23:53.827Z,66.57
2023-03-05T21:26:21.525Z,66.54
2023-03-05T21:28:49.279Z,66.70
2023-03-05T21:31:20.678Z,66.67
2023-03-05T21:33:48.635Z,66.83
2023-03-05T21:36:19.383Z,66.81
2023-03-05T21:38:49.015Z,66.80
2023-03-05T21:41:18.288Z,66.76
2023-03-05T21:43:46.298Z,66.81
2023-03-05T21:46:14.098Z,66.98
2023-03-05T21:48:41.678Z,66.95
2023-03-05T21:51:11.848Z,67.34
2023-03-05T21:53:39.671Z,67.01
2023-03-05T21:56:18.241Z,67.19
2023-03-05T21:58:46.991Z,67.23
2023-03-05T22:01:16.282Z,67.45
2023-03-05T22:03:44.212Z,67.44
2023-03-05T22:06:14.224Z,67.36
2023-03-05T22:08:42.011Z,67.47
2023-03-05T22:11:14.777Z,67.34
2023-03-05T22:13:43.176Z,67.51
2023-03-05T22:16:10.984Z,67.54
2023-03-05T22:18:38.795Z,67.29
2023-03-05T22:21:18.328Z,67.61
2023-03-05T22:23:46.359Z,67.69
2023-03-05T22:26:14.270Z,67.59
2023-03-05T22:28:42.700Z,67.65
2023-03-05T22:31:10.581Z,67.84
2023-03-05T22:33:38.282Z,67.81
2023-03-05T22:36:14.241Z,67.85
2023-03-05T22:38:42.943Z,67.85
2023-03-05T22:41:13.138Z,67.94
2023-03-05T22:43:41.839Z,67.90
2023-03-05T22:46:16.598Z,67.93
2023-03-05T22:48:44.597Z,67.81
2023-03-05T22:51:13.390Z,67.95
2023-03-05T22:53:41.373Z,67.96
2023-03-05T22:56:11.521Z,68.05
2023-03-05T22:58:39.759Z,67.89
2023-03-05T23:01:18.353Z,67.80
2023-03-05T23:03:47.159Z,68.02
2023-03-05T23:06:14.687Z,68.18
2023-03-05T23:08:42.513Z,68.05
2023-03-05T23:11:11.753Z,68.12
2023-03-05T23:13:40.922Z,68.17
2023-03-05T23:16:09.653Z,68.20
2023-03-05T23:18:37.607Z,68.17
2023-03-05T23:21:05.601Z,68.11
2023-03-05T23:23:33.365Z,68.39
2023-03-05T23:26:01.402Z,68.37
2023-03-05T23:28:28.891Z,68.43
2023-03-05T23:30:57.957Z,68.52
2023-03-05T23:33:25.934Z,68.46
2023-03-05T23:35:56.276Z,68.38
2023-03-05T23:38:25.321Z,68.33
2023-03-05T23:40:54.896Z,68.38
2023-03-05T23:43:26.784Z,68.51
2023-03-05T23:45:57.672Z,68.40
2023-03-05T23:48:26.881Z,68.38
2023-03-05T23:50:54.918Z,68.40
2023-03-05T23:53:26.586Z,68.47
2023-03-05T23:55:55.169Z,68.53
2023-03-05T23:58:22.957Z,68.63
